createdAt,value
2019-02-16T00:01:21.903Z,76.46
2019-02-16T00:04:15.524Z,76.44
2019-02-16T00:06:51.965Z,76.51
2019-02-16T00:09:29.269Z,76.78
2019-02-16T00:12:01.587Z,76.68
2019-02-16T00:14:35.560Z,76.84
2019-02-16T00:17:09.135Z,76.50
2019-02-16T00:19:44.292Z,76.50
2019-02-16T00:22:23.265Z,76.77
2019-02-16T00:25:03.138Z,76.46
2019-02-16T00:27:42.362Z,76.32
2019-02-16T00:30:14.830Z,76.59
2019-02-16T00:32:53.162Z,76.86
2019-02-16T00:35:25.163Z,76.83
2019-02-16T00:38:04.698Z,76.62
2019-02-16T00:40:40.715Z,76.69
2019-02-16T00:43:13.108Z,76.79
2019-02-16T00:45:45.693Z,76.91
2019-02-16T00:48:18.077Z,77.96
2019-02-16T00:50:53.317Z,78.10
2019-02-16T00:53:25.789Z,78.33
2019-02-16T00:56:03.591Z,78.27
2019-02-16T00:58:39.242Z,78.56
2019-02-16T01:01:11.507Z,78.28
2019-02-16T01:03:45.132Z,78.40
2019-02-16T01:06:21.597Z,78.33
2019-02-16T01:08:54.017Z,78.16
2019-02-16T01:11:32.190Z,77.91
2019-02-16T01:14:07.140Z,77.74
2019-02-16T01:16:39.626Z,77.73
2019-02-16T01:19:15.133Z,77.90
2019-02-16T01:21:47.772Z,78.29
2019-02-16T01:24:30.198Z,78.63
2019-02-16T01:27:14.417Z,78.67
2019-02-16T01:29:52.424Z,78.47
2019-02-16T01:32:28.100Z,78.55
2019-02-16T01:35:02.812Z,78.40
2019-02-16T01:37:43.769Z,78.41
2019-02-16T01:40:16.262Z,78.30
2019-02-16T01:42:57.151Z,78.27
2019-02-16T01:45:36.622Z,78.26
2019-02-16T01:48:09.320Z,78.14
2019-02-16T01:50:47.399Z,78.22
2019-02-16T01:53:28.643Z,78.21
2019-02-16T01:56:03.568Z,78.41
2019-02-16T01:58:40.985Z,78.46
2019-02-16T02:01:15.298Z,78.40
2019-02-16T02:03:52.031Z,78.51
2019-02-16T02:06:24.501Z,78.80
2019-02-16T02:09:04.224Z,79.16
2019-02-16T02:11:40.720Z,79.05
2019-02-16T02:14:15.176Z,79.10
2019-02-16T02:16:49.104Z,79.03
2019-02-16T02:19:26.204Z,79.10
2019-02-16T02:22:01.270Z,78.84
2019-02-16T02:24:33.695Z,78.81
2019-02-16T02:27:13.950Z,78.81
2019-02-16T02:29:43.179Z,78.86
2019-02-16T02:32:24.353Z,78.50
2019-02-16T02:34:57.915Z,78.63
2019-02-16T02:37:31.772Z,78.21
2019-02-16T02:40:10.925Z,78.22
2019-02-16T02:42:46.410Z,78.48
2019-02-16T02:45:28.163Z,79.27
2019-02-16T02:48:07.173Z,79.59
2019-02-16T02:50:44.287Z,79.76
2019-02-16T02:53:16.672Z,79.86
2019-02-16T02:55:51.287Z,79.85
2019-02-16T02:58:24.605Z,79.77
2019-02-16T03:00:56.931Z,79.36
2019-02-16T03:03:38.225Z,79.22
2019-02-16T03:06:15.942Z,78.77
2019-02-16T03:08:49.991Z,78.71
2019-02-16T03:11:22.344Z,78.78
2019-02-16T03:13:57.355Z,78.75
2019-02-16T03:16:29.663Z,79.53
2019-02-16T03:19:02.107Z,79.73
2019-02-16T03:21:35.668Z,80.19
2019-02-16T03:24:08.424Z,80.33
2019-02-16T03:27:45.522Z,80.03
2019-02-16T03:31:47.752Z,80.29
2019-02-16T03:34:24.064Z,80.92
2019-02-16T03:37:52.780Z,80.90
2019-02-16T03:40:33.077Z,81.07
2019-02-16T03:43:05.430Z,81.45
2019-02-16T03:45:40.408Z,81.53
2019-02-16T03:48:12.679Z,81.58
2019-02-16T03:50:44.832Z,81.84
2019-02-16T03:53:17.170Z,81.85
2019-02-16T03:55:54.747Z,81.84
2019-02-16T03:58:28.882Z,81.58
2019-02-16T04:01:07.072Z,81.78
2019-02-16T04:03:39.068Z,82.04
2019-02-16T04:06:10.917Z,81.75
2019-02-16T04:08:42.688Z,81.75
2019-02-16T04:11:16.281Z,81.99
2019-02-16T04:13:48.178Z,81.87
2019-02-16T04:16:20.170Z,82.05
2019-02-16T04:18:51.991Z,81.94
2019-02-16T04:21:23.954Z,81.99
2019-02-16T04:23:55.749Z,82.09
2019-02-16T04:26:28.521Z,81.86
2019-02-16T04:29:00.337Z,82.18
2019-02-16T04:31:32.179Z,82.51
2019-02-16T04:34:04.911Z,82.37
2019-02-16T04:36:36.705Z,82.71
2019-02-16T04:39:08.570Z,82.79
2019-02-16T04:41:40.396Z,82.64
2019-02-16T04:44:12.309Z,82.59
2019-02-16T04:46:44.089Z,82.46
2019-02-16T04:49:17.389Z,82.66
2019-02-16T04:51:49.302Z,82.89
2019-02-16T04:54:21.157Z,83.01
2019-02-16T04:56:53.021Z,82.90
2019-02-16T04:59:25.010Z,83.03
2019-02-16T05:01:56.885Z,83.29
2019-02-16T05:04:28.687Z,83.82
2019-02-16T05:07:00.547Z,83.33
2019-02-16T05:09:32.409Z,83.66
2019-02-16T05:12:04.283Z,83.50
2019-02-16T05:14:36.170Z,84.01
2019-02-16T05:17:08.074Z,83.79
2019-02-16T05:19:40.023Z,84.50
2019-02-16T05:22:11.862Z,85.14
2019-02-16T05:24:46.458Z,85.45
2019-02-16T05:27:18.430Z,85.62
2019-02-16T05:29:50.257Z,85.77
2019-02-16T05:32:22.126Z,85.75
2019-02-16T05:34:53.975Z,85.83
2019-02-16T05:37:25.762Z,85.98
2019-02-16T05:39:57.670Z,86.08
2019-02-16T05:42:29.649Z,86.15
2019-02-16T05:45:01.470Z,85.99
2019-02-16T05:47:33.462Z,86.24
2019-02-16T05:50:05.666Z,86.25
2019-02-16T05:52:37.478Z,85.88
2019-02-16T05:55:09.499Z,86.27
2019-02-16T05:57:41.314Z,86.37
2019-02-16T06:00:14.271Z,86.33
2019-02-16T06:02:47.307Z,86.46
2019-02-16T06:05:19.135Z,86.34
2019-02-16T06:07:50.995Z,86.42
2019-02-16T06:10:22.806Z,86.34
2019-02-16T06:12:54.656Z,86.46
2019-02-16T06:15:26.524Z,86.57
2019-02-16T06:17:58.438Z,86.19
2019-02-16T06:20:30.235Z,86.28
2019-02-16T06:23:04.659Z,85.66
2019-02-16T06:25:35.558Z,85.55
2019-02-16T06:28:07.630Z,85.45
2019-02-16T06:30:39.448Z,85.20
2019-02-16T06:33:11.292Z,85.12
2019-02-16T06:35:49.690Z,84.75
2019-02-16T06:38:21.522Z,84.53
2019-02-16T06:40:53.371Z,83.86
2019-02-16T06:43:25.719Z,83.38
2019-02-16T06:45:57.503Z,83.18
2019-02-16T06:48:29.390Z,83.19
2019-02-16T06:51:01.428Z,83.10
2019-02-16T06:53:33.325Z,82.74
2019-02-16T06:56:24.214Z,82.44
2019-02-16T06:58:56.170Z,82.22
2019-02-16T07:01:28.276Z,82.06
2019-02-16T07:04:00.032Z,81.91
2019-02-16T07:06:31.939Z,81.80
2019-02-16T07:09:04.966Z,81.63
2019-02-16T07:11:37.084Z,81.29
2019-02-16T07:14:09.231Z,81.17
2019-02-16T07:16:52.419Z,81.03
2019-02-16T07:19:30.057Z,81.08
2019-02-16T07:22:01.982Z,81.32
2019-02-16T07:24:33.864Z,81.44
2019-02-16T07:27:05.874Z,81.52
2019-02-16T07:29:37.746Z,81.62
2019-02-16T07:32:09.615Z,81.65
2019-02-16T07:34:41.408Z,81.54
2019-02-16T07:37:13.340Z,81.07
2019-02-16T07:39:45.414Z,80.88
2019-02-16T07:42:17.557Z,80.68
2019-02-16T07:44:58.038Z,80.25
2019-02-16T07:47:50.598Z,79.93
2019-02-16T07:50:44.502Z,79.58
2019-02-16T07:53:31.901Z,79.06
2019-02-16T07:56:39.848Z,78.49
2019-02-16T07:59:38.386Z,78.02
2019-02-16T08:02:23.449Z,77.46
2019-02-16T08:05:12.797Z,77.51
2019-02-16T08:08:03.667Z,77.10
2019-02-16T08:11:11.992Z,76.46
2019-02-16T08:14:08.009Z,76.11
2019-02-16T08:16:51.633Z,75.28
2019-02-16T08:19:41.741Z,74.47
2019-02-16T08:22:31.291Z,74.24
2019-02-16T08:25:18.630Z,73.57
2019-02-16T08:28:08.268Z,73.38
2019-02-16T08:31:05.096Z,73.03
2019-02-16T08:33:46.338Z,71.97
2019-02-16T08:36:32.977Z,71.63
2019-02-16T08:39:26.612Z,71.33
2019-02-16T08:42:26.130Z,72.05
2019-02-16T08:45:16.944Z,70.51
2019-02-16T08:48:06.067Z,68.92
2019-02-16T08:50:48.984Z,68.64
2019-02-16T08:53:57.613Z,68.06
2019-02-16T08:56:57.497Z,67.51
2019-02-16T08:59:40.085Z,66.93
2019-02-16T09:02:23.302Z,65.48
2019-02-16T09:04:59.354Z,65.15
2019-02-16T09:07:48.683Z,65.56
2019-02-16T09:10:39.436Z,65.21
2019-02-16T09:13:31.052Z,63.63
2019-02-16T09:16:21.885Z,62.47
2019-02-16T09:19:11.588Z,63.17
2019-02-16T09:21:54.340Z,61.25
2019-02-16T09:24:48.110Z,61.03
2019-02-16T09:27:44.925Z,60.39
2019-02-16T09:30:36.516Z,60.40
2019-02-16T09:33:34.073Z,62.49
2019-02-16T09:36:30.882Z,57.44
2019-02-16T09:39:30.669Z,58.59
2019-02-16T09:42:12.693Z,53.83
2019-02-16T09:44:54.635Z,54.39
2019-02-16T09:47:41.092Z,54.03
2019-02-16T09:50:30.537Z,55.60
2019-02-16T09:53:08.632Z,52.20
2019-02-16T09:56:07.109Z,54.48
2019-02-16T09:58:59.552Z,50.62
2019-02-16T10:02:02.632Z,50.99
2019-02-16T10:04:45.458Z,52.93
2019-02-16T10:07:39.802Z,49.73
2019-02-16T10:10:33.629Z,48.81
2019-02-16T10:13:36.883Z,50.40
2019-02-16T10:16:25.737Z,51.92
2019-02-16T10:19:16.436Z,45.69
2019-02-16T10:22:07.240Z,47.61
2019-02-16T10:24:55.815Z,48.11
2019-02-16T10:27:40.540Z,50.30
2019-02-16T10:30:18.391Z,47.18
2019-02-16T10:33:24.097Z,44.62
2019-02-16T10:36:06.045Z,44.83
2019-02-16T10:39:09.084Z,47.12
2019-02-16T10:41:49.880Z,45.14
2019-02-16T10:44:43.011Z,44.62
2019-02-16T10:47:41.560Z,43.99
2019-02-16T10:50:25.714Z,42.03
2019-02-16T10:53:16.580Z,43.40
2019-02-16T10:56:01.603Z,42.68
2019-02-16T10:58:42.794Z,41.84
2019-02-16T11:01:23.955Z,42.19
2019-02-16T11:04:11.127Z,43.18
2019-02-16T11:06:56.773Z,45.40
2019-02-16T11:09:54.168Z,42.98
2019-02-16T11:12:54.104Z,42.31
2019-02-16T11:15:47.799Z,42.40
2019-02-16T11:18:38.355Z,43.00
2019-02-16T11:21:26.846Z,43.57
2019-02-16T11:24:06.668Z,41.81
2019-02-16T11:27:06.441Z,43.48
2019-02-16T11:30:05.991Z,42.67
2019-02-16T11:32:54.211Z,39.81
2019-02-16T11:35:40.468Z,39.94
2019-02-16T11:38:31.236Z,40.20
2019-02-16T11:41:18.709Z,40.71
2019-02-16T11:43:54.364Z,38.04
2019-02-16T11:46:43.613Z,40.07
2019-02-16T11:49:28.243Z,39.88
2019-02-16T11:52:30.930Z,37.62
2019-02-16T11:55:21.651Z,37.96
2019-02-16T11:58:12.356Z,35.86
2019-02-16T12:00:55.639Z,38.26
2019-02-16T12:03:42.069Z,37.70
2019-02-16T12:06:38.567Z,37.79
2019-02-16T12:09:30.273Z,37.99
2019-02-16T12:12:29.566Z,33.22
2019-02-16T12:15:08.848Z,35.87
2019-02-16T12:17:59.628Z,33.73
2019-02-16T12:20:53.135Z,33.92
2019-02-16T12:23:36.916Z,31.41
2019-02-16T12:26:32.423Z,34.96
2019-02-16T12:29:32.362Z,35.30
2019-02-16T12:32:16.217Z,32.44
2019-02-16T12:35:01.667Z,33.19
2019-02-16T12:37:38.707Z,31.75
2019-02-16T12:40:23.241Z,31.57
2019-02-16T12:43:31.897Z,32.72
2019-02-16T12:46:28.522Z,34.62
2019-02-16T12:49:25.061Z,30.19
2019-02-16T12:52:14.857Z,29.68
2019-02-16T12:55:18.128Z,30.38
2019-02-16T12:58:11.657Z,30.97
2019-02-16T13:01:02.494Z,30.85
2019-02-16T13:03:57.357Z,30.68
2019-02-16T13:06:50.177Z,30.84
2019-02-16T13:09:55.587Z,31.20
2019-02-16T13:12:47.644Z,31.21
2019-02-16T13:15:25.683Z,31.76
2019-02-16T13:18:19.491Z,31.47
2019-02-16T13:21:16.255Z,31.99
2019-02-16T13:24:05.317Z,31.33
2019-02-16T13:27:00.567Z,31.60
2019-02-16T13:29:51.402Z,31.84
2019-02-16T13:32:40.608Z,32.05
2019-02-16T13:35:30.496Z,32.33
2019-02-16T13:38:24.348Z,32.57
2019-02-16T13:41:21.416Z,32.28
2019-02-16T13:44:15.687Z,32.44
2019-02-16T13:47:03.315Z,33.00
2019-02-16T13:49:59.678Z,32.73
2019-02-16T13:52:57.217Z,33.20
2019-02-16T13:55:47.265Z,33.81
2019-02-16T13:58:46.878Z,33.24
2019-02-16T14:01:33.814Z,33.63
2019-02-16T14:04:29.302Z,33.11
2019-02-16T14:07:20.095Z,33.54
2019-02-16T14:10:20.763Z,33.95
2019-02-16T14:13:02.249Z,33.33
2019-02-16T14:15:47.168Z,33.51
2019-02-16T14:18:19.084Z,34.26
2019-02-16T14:20:51.591Z,33.79
2019-02-16T14:23:23.966Z,33.54
2019-02-16T14:25:56.074Z,34.09
2019-02-16T14:28:28.063Z,34.59
2019-02-16T14:31:00.304Z,35.13
2019-02-16T14:33:32.286Z,35.21
2019-02-16T14:36:04.699Z,35.52
2019-02-16T14:38:48.270Z,35.86
2019-02-16T14:41:20.367Z,35.54
2019-02-16T14:43:52.273Z,34.82
2019-02-16T14:46:24.270Z,35.57
2019-02-16T14:48:56.110Z,35.48
2019-02-16T14:51:28.060Z,35.73
2019-02-16T14:54:00.178Z,36.10
2019-02-16T14:56:32.000Z,36.23
2019-02-16T14:59:03.978Z,36.24
2019-02-16T15:01:35.951Z,36.75
2019-02-16T15:04:08.942Z,36.88
2019-02-16T15:06:43.416Z,36.66
2019-02-16T15:09:15.277Z,36.09
2019-02-16T15:11:47.288Z,35.81
2019-02-16T15:14:19.454Z,36.50
2019-02-16T15:16:52.631Z,36.32
2019-02-16T15:19:25.752Z,37.02
2019-02-16T15:21:57.761Z,36.96
2019-02-16T15:24:29.613Z,37.17
2019-02-16T15:27:01.537Z,37.38
2019-02-16T15:29:33.437Z,37.41
2019-02-16T15:32:05.414Z,37.43
2019-02-16T15:34:40.489Z,37.69
2019-02-16T15:37:12.464Z,37.80
2019-02-16T15:39:44.341Z,37.99
2019-02-16T15:42:16.257Z,38.22
2019-02-16T15:44:48.177Z,38.24
2019-02-16T15:47:20.159Z,38.50
2019-02-16T15:49:52.068Z,38.61
2019-02-16T15:52:23.957Z,38.57
2019-02-16T15:54:55.847Z,38.93
2019-02-16T15:57:31.258Z,39.54
2019-02-16T16:00:03.536Z,39.71
2019-02-16T16:02:35.813Z,40.22
2019-02-16T16:05:07.753Z,40.50
2019-02-16T16:07:41.437Z,41.20
2019-02-16T16:10:35.281Z,41.18
2019-02-16T16:13:37.063Z,41.10
2019-02-16T16:16:27.869Z,41.24
2019-02-16T16:19:22.578Z,41.25
2019-02-16T16:22:04.281Z,41.48
2019-02-16T16:24:57.945Z,41.99
2019-02-16T16:27:36.859Z,42.94
2019-02-16T16:30:28.052Z,43.06
2019-02-16T16:33:07.659Z,43.43
2019-02-16T16:35:49.004Z,44.24
2019-02-16T16:38:54.992Z,44.40
2019-02-16T16:41:57.617Z,44.71
2019-02-16T16:44:37.197Z,45.15
2019-02-16T16:47:34.669Z,45.76
2019-02-16T16:50:22.836Z,46.05
2019-02-16T16:53:23.725Z,46.18
2019-02-16T16:56:28.474Z,45.82
2019-02-16T16:59:35.855Z,46.01
2019-02-16T17:02:25.080Z,46.74
2019-02-16T17:05:15.257Z,47.41
2019-02-16T17:08:08.769Z,47.98
2019-02-16T17:10:57.823Z,48.64
2019-02-16T17:13:49.179Z,48.94
2019-02-16T17:16:31.892Z,49.57
2019-02-16T17:19:22.563Z,49.70
2019-02-16T17:22:16.004Z,50.21
2019-02-16T17:24:59.840Z,51.63
2019-02-16T17:27:44.992Z,51.21
2019-02-16T17:30:50.954Z,51.33
2019-02-16T17:33:41.686Z,51.98
2019-02-16T17:36:32.571Z,51.99
2019-02-16T17:39:21.729Z,52.78
2019-02-16T17:42:14.112Z,52.84
2019-02-16T17:45:07.772Z,52.52
2019-02-16T17:48:01.360Z,53.03
2019-02-16T17:50:38.614Z,53.46
2019-02-16T17:53:26.449Z,53.91
2019-02-16T17:56:11.589Z,53.77
2019-02-16T17:59:02.296Z,54.18
2019-02-16T18:01:58.848Z,54.61
2019-02-16T18:04:52.515Z,54.85
2019-02-16T18:07:31.081Z,55.84
2019-02-16T18:10:14.818Z,55.70
2019-02-16T18:13:17.714Z,56.69
2019-02-16T18:15:55.419Z,56.13
2019-02-16T18:18:47.808Z,56.31
2019-02-16T18:21:42.459Z,56.96
2019-02-16T18:24:36.206Z,57.18
2019-02-16T18:27:30.036Z,57.46
2019-02-16T18:30:23.642Z,57.08
2019-02-16T18:33:07.776Z,57.64
2019-02-16T18:35:58.503Z,57.59
2019-02-16T18:38:58.195Z,57.60
2019-02-16T18:41:39.782Z,58.00
2019-02-16T18:44:38.164Z,57.68
2019-02-16T18:47:21.921Z,57.95
2019-02-16T18:50:12.684Z,58.98
2019-02-16T18:53:06.306Z,59.51
2019-02-16T18:55:52.550Z,59.27
2019-02-16T18:58:31.759Z,59.48
2019-02-16T19:01:14.357Z,59.95
2019-02-16T19:04:05.142Z,60.09
2019-02-16T19:07:14.015Z,60.99
2019-02-16T19:09:56.254Z,61.29
2019-02-16T19:12:46.225Z,61.42
2019-02-16T19:15:49.035Z,62.03
2019-02-16T19:18:38.902Z,62.30
2019-02-16T19:21:31.232Z,61.78
2019-02-16T19:24:37.480Z,63.16
2019-02-16T19:27:32.372Z,62.68
2019-02-16T19:30:12.152Z,63.13
2019-02-16T19:32:51.049Z,62.84
2019-02-16T19:35:53.318Z,63.09
2019-02-16T19:38:53.435Z,63.95
2019-02-16T19:41:50.935Z,64.51
2019-02-16T19:44:42.992Z,64.33
2019-02-16T19:47:38.002Z,64.32
2019-02-16T19:50:41.015Z,64.51
2019-02-16T19:53:33.381Z,65.26
2019-02-16T19:56:21.459Z,65.11
2019-02-16T19:59:16.734Z,65.77
2019-02-16T20:02:16.698Z,65.18
2019-02-16T20:05:11.375Z,66.08
2019-02-16T20:07:56.914Z,66.08
2019-02-16T20:10:55.552Z,66.36
2019-02-16T20:13:54.065Z,66.19
2019-02-16T20:16:57.322Z,66.96
2019-02-16T20:19:49.475Z,67.14
2019-02-16T20:22:48.082Z,66.77
2019-02-16T20:25:49.984Z,67.26
2019-02-16T20:28:52.042Z,67.25
2019-02-16T20:32:46.849Z,67.32
2019-02-16T20:35:42.583Z,66.68
2019-02-16T20:38:31.333Z,66.13
2019-02-16T20:41:45.925Z,65.78
2019-02-16T20:44:21.472Z,65.97
2019-02-16T20:47:51.895Z,66.63
2019-02-16T20:50:44.177Z,66.60
2019-02-16T20:53:43.747Z,66.50
2019-02-16T20:56:25.090Z,67.04
2019-02-16T20:59:54.401Z,66.92
2019-02-16T21:03:09.051Z,67.15
2019-02-16T21:06:19.734Z,67.68
2019-02-16T21:09:26.026Z,67.00
2019-02-16T21:12:18.910Z,67.28
2019-02-16T21:15:33.667Z,67.56
2019-02-16T21:18:25.658Z,67.32
2019-02-16T21:21:38.825Z,67.33
2019-02-16T21:24:32.146Z,67.80
2019-02-16T21:27:18.713Z,68.25
2019-02-16T21:30:03.190Z,67.93
2019-02-16T21:33:02.443Z,67.97
2019-02-16T21:35:54.047Z,67.53
2019-02-16T21:38:51.665Z,67.29
2019-02-16T21:41:42.968Z,67.78
2019-02-16T21:44:38.329Z,67.76
2019-02-16T21:47:33.853Z,67.83
2019-02-16T21:50:33.762Z,68.12
2019-02-16T21:53:37.717Z,68.40
2019-02-16T21:56:25.725Z,68.68
2019-02-16T21:59:25.747Z,68.54
2019-02-16T22:02:12.478Z,68.30
2019-02-16T22:05:17.562Z,68.44
2019-02-16T22:08:19.168Z,68.59
2019-02-16T22:11:19.255Z,67.92
2019-02-16T22:13:55.190Z,67.52
2019-02-16T22:16:54.866Z,67.36
2019-02-16T22:19:36.154Z,67.34
2019-02-16T22:22:25.961Z,67.68
2019-02-16T22:27:59.916Z,67.19
2019-02-16T22:30:36.089Z,67.45
2019-02-16T22:33:13.512Z,67.60
2019-02-16T22:35:51.700Z,67.52
2019-02-16T22:38:31.241Z,67.48
2019-02-16T22:41:08.832Z,67.23
2019-02-16T22:43:50.821Z,67.20
2019-02-16T22:46:27.334Z,67.40
2019-02-16T22:49:07.204Z,67.72
2019-02-16T22:51:38.920Z,67.88
2019-02-16T22:54:18.688Z,67.93
2019-02-16T22:56:54.262Z,68.14
2019-02-16T22:59:31.585Z,68.42
2019-02-16T23:02:14.469Z,68.46
2019-02-16T23:04:47.579Z,68.54
2019-02-16T23:07:23.993Z,68.61
2019-02-16T23:10:01.987Z,68.75
2019-02-16T23:12:44.478Z,68.61
2019-02-16T23:15:20.870Z,68.52
2019-02-16T23:18:09.505Z,68.18
2019-02-16T23:20:43.503Z,67.94
2019-02-16T23:23:15.520Z,67.83
2019-02-16T23:25:47.271Z,68.08
2019-02-16T23:28:53.316Z,68.06
2019-02-16T23:31:26.409Z,68.16
2019-02-16T23:34:04.028Z,67.62
2019-02-16T23:36:51.775Z,67.04
2019-02-16T23:39:26.648Z,66.82
2019-02-16T23:42:09.237Z,67.07
2019-02-16T23:44:45.698Z,67.51
2019-02-16T23:47:32.624Z,67.71
2019-02-16T23:50:11.525Z,67.82
2019-02-16T23:52:50.689Z,68.26
2019-02-16T23:55:26.262Z,68.15
2019-02-16T23:58:02.407Z,68.52
